createdAt,value
2022-10-13T00:01:54.169Z,96007.38
2022-10-13T00:04:21.863Z,96007.63
2022-10-13T00:06:49.625Z,96011.06
2022-10-13T00:09:17.320Z,96011.06
2022-10-13T00:11:44.988Z,96004.28
2022-10-13T00:14:13.983Z,96002.41
2022-10-13T00:16:41.704Z,95996.19
2022-10-13T00:19:14.204Z,95992.91
2022-10-13T00:21:42.763Z,95985.88
2022-10-13T00:24:12.202Z,95986.28
2022-10-13T00:26:39.907Z,96001.09
2022-10-13T00:29:07.571Z,95993.97
2022-10-13T00:31:36.654Z,95993.69
2022-10-13T00:34:04.297Z,95997.44
2022-10-13T00:36:32.940Z,96003.31
2022-10-13T00:39:00.662Z,95999.06
2022-10-13T00:41:28.461Z,96004.75
2022-10-13T00:43:59.705Z,96000.94
2022-10-13T00:46:29.347Z,95997.72
2022-10-13T00:49:00.939Z,96000.38
2022-10-13T00:51:31.485Z,95993.69
2022-10-13T00:54:00.965Z,95994.75
2022-10-13T00:56:30.211Z,95984.44
2022-10-13T00:58:58.745Z,95988.19
2022-10-13T01:01:26.895Z,95990.16
2022-10-13T01:03:54.689Z,95988.28
2022-10-13T01:06:24.350Z,95984.34
2022-10-13T01:08:52.187Z,95987.03
2022-10-13T01:11:34.770Z,95984.66
2022-10-13T01:14:13.602Z,95986.06
2022-10-13T01:16:51.192Z,95993.41
2022-10-13T01:19:39.176Z,95982.28
2022-10-13T01:22:21.297Z,95985.47
2022-10-13T01:25:04.141Z,95985.06
2022-10-13T01:28:05.547Z,95989.00
2022-10-13T01:30:38.745Z,95986.72
2022-10-13T01:33:18.436Z,95987.47
2022-10-13T01:35:57.764Z,95981.19
2022-10-13T01:38:34.570Z,95984.03
2022-10-13T01:41:10.960Z,95987.22
2022-10-13T01:43:41.664Z,95975.63
2022-10-13T01:46:15.749Z,95977.19
2022-10-13T01:48:45.671Z,95988.13
2022-10-13T01:51:17.496Z,95988.84
2022-10-13T01:53:47.017Z,95995.28
2022-10-13T01:56:15.524Z,95994.47
2022-10-13T01:58:43.443Z,95998.50
2022-10-13T02:01:26.790Z,96003.06
2022-10-13T02:04:04.123Z,95997.44
2022-10-13T02:06:38.430Z,95988.03
2022-10-13T02:09:12.746Z,95990.97
2022-10-13T02:11:46.303Z,95992.84
2022-10-13T02:14:18.289Z,95994.06
2022-10-13T02:16:50.431Z,95994.53
2022-10-13T02:19:20.159Z,95994.78
2022-10-13T02:21:48.341Z,95999.59
2022-10-13T02:24:16.144Z,95999.03
2022-10-13T02:26:44.712Z,95992.81
2022-10-13T02:29:14.293Z,95995.50
2022-10-13T02:31:43.239Z,96004.50
2022-10-13T02:34:12.802Z,96008.72
2022-10-13T02:36:41.175Z,95994.97
2022-10-13T02:39:10.867Z,95992.34
2022-10-13T02:41:38.764Z,95997.16
2022-10-13T02:44:06.861Z,95992.81
2022-10-13T02:46:34.551Z,96005.47
2022-10-13T02:49:02.333Z,95991.19
2022-10-13T02:51:34.077Z,95989.06
2022-10-13T02:54:03.994Z,95990.88
2022-10-13T02:56:31.650Z,95990.44
2022-10-13T02:58:59.307Z,95999.56
2022-10-13T03:01:27.024Z,95997.69
2022-10-13T03:03:54.726Z,95992.47
2022-10-13T03:06:22.523Z,95994.47
2022-10-13T03:08:51.692Z,95993.91
2022-10-13T03:11:21.109Z,95994.00
2022-10-13T03:13:48.829Z,95986.16
2022-10-13T03:16:16.549Z,95979.06
2022-10-13T03:18:44.284Z,95984.34
2022-10-13T03:21:12.107Z,95980.03
2022-10-13T03:23:39.905Z,95984.59
2022-10-13T03:26:09.223Z,95975.03
2022-10-13T03:28:37.100Z,95973.84
2022-10-13T03:31:06.941Z,95975.97
2022-10-13T03:33:34.709Z,95977.53
2022-10-13T03:36:04.757Z,95981.97
2022-10-13T03:38:34.466Z,95978.72
2022-10-13T03:41:06.413Z,95978.22
2022-10-13T03:43:35.535Z,95975.88
2022-10-13T03:46:05.061Z,95976.72
2022-10-13T03:48:33.796Z,95981.84
2022-10-13T03:51:01.584Z,95989.81
2022-10-13T03:53:29.277Z,95990.06
2022-10-13T03:55:57.863Z,95991.34
2022-10-13T03:58:28.536Z,95991.09
2022-10-13T04:00:58.705Z,95998.69
2022-10-13T04:03:26.389Z,96004.91
2022-10-13T04:05:54.076Z,95999.72
2022-10-13T04:08:21.770Z,96001.88
2022-10-13T04:10:49.424Z,96002.22
2022-10-13T04:13:17.107Z,96000.78
2022-10-13T04:15:44.835Z,96000.47
2022-10-13T04:18:13.925Z,95998.72
2022-10-13T04:20:41.966Z,96005.31
2022-10-13T04:23:10.066Z,96005.50
2022-10-13T04:25:38.633Z,96008.38
2022-10-13T04:28:07.874Z,96008.28
2022-10-13T04:30:35.968Z,95997.94
2022-10-13T04:33:03.736Z,95998.81
2022-10-13T04:35:32.892Z,95998.56
2022-10-13T04:38:00.747Z,95990.00
2022-10-13T04:40:28.503Z,95988.69
2022-10-13T04:42:56.194Z,95987.97
2022-10-13T04:45:23.887Z,95987.53
2022-10-13T04:47:51.953Z,95987.59
2022-10-13T04:50:19.998Z,95988.09
2022-10-13T04:52:49.290Z,95990.06
2022-10-13T04:55:16.980Z,95983.13
2022-10-13T04:57:44.658Z,95984.00
2022-10-13T05:00:13.264Z,95983.84
2022-10-13T05:02:40.965Z,95984.78
2022-10-13T05:05:09.922Z,95983.56
2022-10-13T05:07:37.636Z,95984.00
2022-10-13T05:10:07.187Z,95989.22
2022-10-13T05:12:37.694Z,95986.06
2022-10-13T05:15:05.935Z,95972.13
2022-10-13T05:17:35.497Z,95980.84
2022-10-13T05:20:03.803Z,95979.22
2022-10-13T05:22:31.489Z,95974.44
2022-10-13T05:24:59.150Z,95980.41
2022-10-13T05:27:28.576Z,95982.03
2022-10-13T05:29:56.281Z,95981.56
2022-10-13T05:32:24.042Z,95984.91
2022-10-13T05:34:51.785Z,95978.50
2022-10-13T05:37:22.349Z,95983.38
2022-10-13T05:39:50.462Z,95983.94
2022-10-13T05:42:18.684Z,95983.16
2022-10-13T05:44:48.111Z,95983.78
2022-10-13T05:47:15.871Z,95979.78
2022-10-13T05:49:43.600Z,95985.50
2022-10-13T05:52:13.771Z,95976.91
2022-10-13T05:54:44.396Z,95977.75
2022-10-13T05:57:16.107Z,95981.88
2022-10-13T05:59:50.533Z,95977.06
2022-10-13T06:02:22.704Z,95979.03
2022-10-13T06:04:55.806Z,95977.75
2022-10-13T06:07:23.905Z,95973.75
2022-10-13T06:09:51.832Z,95973.00
2022-10-13T06:12:20.021Z,95973.88
2022-10-13T06:14:48.898Z,95968.81
2022-10-13T06:17:16.606Z,95974.53
2022-10-13T06:19:46.100Z,95973.78
2022-10-13T06:22:13.957Z,95962.72
2022-10-13T06:24:41.724Z,95967.09
2022-10-13T06:27:09.461Z,95969.06
2022-10-13T06:29:37.258Z,95963.16
2022-10-13T06:32:05.521Z,95967.56
2022-10-13T06:34:34.293Z,95957.56
2022-10-13T06:37:05.631Z,95971.66
2022-10-13T06:39:33.893Z,95967.09
2022-10-13T06:42:01.580Z,95976.06
2022-10-13T06:44:29.303Z,95967.13
2022-10-13T06:46:57.009Z,95957.38
2022-10-13T06:49:24.796Z,95963.38
2022-10-13T06:51:52.518Z,95959.81
2022-10-13T06:54:21.680Z,95952.22
2022-10-13T06:56:49.640Z,95963.88
2022-10-13T06:59:17.456Z,95966.28
2022-10-13T07:01:45.237Z,95969.28
2022-10-13T07:04:13.133Z,95970.06
2022-10-13T07:06:40.856Z,95970.59
2022-10-13T07:09:09.856Z,95958.88
2022-10-13T07:11:39.078Z,95966.47
2022-10-13T07:14:06.821Z,95968.91
2022-10-13T07:16:34.885Z,95956.63
2022-10-13T07:19:02.771Z,95963.41
2022-10-13T07:21:30.523Z,95956.59
2022-10-13T07:23:58.280Z,95967.72
2022-10-13T07:26:26.040Z,95964.97
2022-10-13T07:28:55.176Z,95961.69
2022-10-13T07:31:22.925Z,95960.88
2022-10-13T07:33:51.884Z,95960.06
2022-10-13T07:36:20.034Z,95960.63
2022-10-13T07:38:48.080Z,95954.66
2022-10-13T07:41:16.083Z,95952.19
2022-10-13T07:43:44.483Z,95961.91
2022-10-13T07:46:14.509Z,95952.63
2022-10-13T07:48:42.837Z,95960.22
2022-10-13T07:51:12.232Z,95950.63
2022-10-13T07:53:41.055Z,95945.97
2022-10-13T07:56:12.391Z,95943.16
2022-10-13T07:58:41.842Z,95942.03
2022-10-13T08:01:10.659Z,95935.16
2022-10-13T08:03:42.927Z,95942.75
2022-10-13T08:06:13.597Z,95951.38
2022-10-13T08:08:41.460Z,95942.03
2022-10-13T08:11:16.481Z,95943.31
2022-10-13T08:13:48.011Z,95930.09
2022-10-13T08:16:15.814Z,95932.91
2022-10-13T08:18:46.030Z,95922.06
2022-10-13T08:21:57.500Z,95927.47
2022-10-13T08:24:05.854Z,95926.25
2022-10-13T08:26:33.579Z,95929.91
2022-10-13T08:49:43.550Z,95940.78
2022-10-13T08:52:19.334Z,95931.50
2022-10-13T09:06:16.619Z,95908.50
2022-10-13T09:08:49.937Z,95913.78
2022-10-13T09:11:17.911Z,95912.56
2022-10-13T09:13:45.786Z,95915.69
2022-10-13T09:16:13.608Z,95913.28
2022-10-13T09:18:41.417Z,95915.69
2022-10-13T09:21:20.148Z,95910.56
2022-10-13T09:23:49.675Z,95902.31
2022-10-13T09:26:21.542Z,95905.91
2022-10-13T09:28:50.159Z,95899.66
2022-10-13T09:31:21.275Z,95888.97
2022-10-13T09:33:59.376Z,95885.50
2022-10-13T09:36:28.951Z,95885.03
2022-10-13T09:39:09.087Z,95882.13
2022-10-13T09:41:37.406Z,95881.91
2022-10-13T09:44:13.486Z,95883.88
2022-10-13T09:46:48.501Z,95895.34
2022-10-13T09:49:38.039Z,95881.81
2022-10-13T09:52:16.106Z,95881.09
2022-10-13T09:54:47.381Z,95877.53
2022-10-13T09:57:21.539Z,95877.09
2022-10-13T09:59:51.735Z,95871.69
2022-10-13T10:02:31.802Z,95871.06
2022-10-13T10:05:06.365Z,95874.75
2022-10-13T10:07:35.514Z,95881.34
2022-10-13T10:10:09.094Z,95871.72
2022-10-13T10:12:42.019Z,95876.19
2022-10-13T10:15:21.198Z,95875.25
2022-10-13T10:17:55.373Z,95872.03
2022-10-13T10:20:36.489Z,95881.59
2022-10-13T10:23:09.352Z,95883.22
2022-10-13T10:25:43.616Z,95882.66
2022-10-13T10:28:28.758Z,95879.09
2022-10-13T10:31:03.116Z,95876.13
2022-10-13T10:33:42.591Z,95877.22
2022-10-13T10:36:17.091Z,95867.41
2022-10-13T10:38:52.551Z,95854.09
2022-10-13T10:41:36.264Z,95848.09
2022-10-13T10:44:10.119Z,95838.88
2022-10-13T10:46:41.804Z,95838.41
2022-10-13T10:49:17.992Z,95841.59
2022-10-13T10:51:46.350Z,95848.38
2022-10-13T10:54:31.555Z,95842.34
2022-10-13T10:57:04.374Z,95835.22
2022-10-13T10:59:51.947Z,95834.16
2022-10-13T11:02:37.960Z,95820.69
2022-10-13T11:05:06.580Z,95820.53
2022-10-13T11:08:01.619Z,95818.78
2022-10-13T11:10:30.998Z,95817.81
2022-10-13T11:13:19.316Z,95817.13
2022-10-13T11:15:47.642Z,95819.50
2022-10-13T11:18:51.837Z,95817.72
2022-10-13T11:21:19.572Z,95813.53
2022-10-13T11:23:49.012Z,95805.63
2022-10-13T11:26:44.572Z,95791.66
2022-10-13T11:29:39.991Z,95786.69
2022-10-13T11:32:55.476Z,95785.41
2022-10-13T11:35:29.700Z,95788.72
2022-10-13T11:38:16.835Z,95790.19
2022-10-13T11:41:02.049Z,95778.81
2022-10-13T11:43:40.073Z,95784.69
2022-10-13T11:46:28.373Z,95771.63
2022-10-13T11:49:43.147Z,95770.06
2022-10-13T11:52:27.998Z,95772.72
2022-10-13T11:55:02.583Z,95766.56
2022-10-13T11:57:32.748Z,95762.53
2022-10-13T12:00:01.855Z,95764.03
2022-10-13T12:02:29.822Z,95763.69
2022-10-13T12:05:03.344Z,95753.75
2022-10-13T12:07:35.170Z,95753.34
2022-10-13T12:10:06.236Z,95747.22
2022-10-13T12:12:34.887Z,95749.69
2022-10-13T12:15:29.084Z,95748.06
2022-10-13T12:17:57.211Z,95745.84
2022-10-13T12:20:27.099Z,95734.03
2022-10-13T12:22:56.691Z,95728.53
2022-10-13T12:25:27.507Z,95729.34
2022-10-13T12:27:57.162Z,95723.22
2022-10-13T12:30:29.619Z,95732.06
2022-10-13T12:32:59.219Z,95725.75
2022-10-13T12:35:29.751Z,95720.91
2022-10-13T12:37:59.030Z,95723.06
2022-10-13T12:40:27.231Z,95725.28
2022-10-13T12:42:55.137Z,95724.28
2022-10-13T12:45:29.378Z,95722.47
2022-10-13T12:47:57.193Z,95727.53
2022-10-13T12:50:35.668Z,95721.72
2022-10-13T12:53:13.542Z,95720.91
2022-10-13T12:55:55.210Z,95713.84
2022-10-13T12:58:25.565Z,95706.44
2022-10-13T13:01:01.321Z,95706.25
2022-10-13T13:03:30.822Z,95706.91
2022-10-13T13:06:10.899Z,95704.16
2022-10-13T13:08:38.727Z,95689.78
2022-10-13T13:11:08.675Z,95693.81
2022-10-13T13:13:36.383Z,95691.41
2022-10-13T13:16:24.008Z,95692.19
2022-10-13T13:18:52.485Z,95690.38
2022-10-13T13:21:21.182Z,95696.16
2022-10-13T13:23:53.702Z,95691.31
2022-10-13T13:26:23.706Z,95689.56
2022-10-13T13:28:53.522Z,95691.22
2022-10-13T13:31:25.234Z,95688.59
2022-10-13T13:33:53.440Z,95687.63
2022-10-13T13:36:28.179Z,95690.00
2022-10-13T13:38:55.913Z,95687.22
2022-10-13T13:41:24.034Z,95673.84
2022-10-13T13:43:51.815Z,95681.16
2022-10-13T13:46:23.139Z,95680.03
2022-10-13T13:48:56.689Z,95673.56
2022-10-13T13:51:24.503Z,95669.25
2022-10-13T13:53:55.041Z,95673.34
2022-10-13T13:56:22.859Z,95669.00
2022-10-13T13:58:50.560Z,95673.53
2022-10-13T14:01:21.631Z,95677.22
2022-10-13T14:03:49.451Z,95673.66
2022-10-13T14:06:22.920Z,95676.25
2022-10-13T14:08:51.514Z,95668.16
2022-10-13T14:11:19.315Z,95665.75
2022-10-13T14:13:47.028Z,95664.59
2022-10-13T14:16:18.003Z,95662.69
2022-10-13T14:18:45.807Z,95662.72
2022-10-13T14:21:13.507Z,95658.19
2022-10-13T14:23:46.808Z,95657.19
2022-10-13T14:26:15.033Z,95659.00
2022-10-13T14:28:43.191Z,95659.47
2022-10-13T14:31:11.502Z,95654.97
2022-10-13T14:33:39.369Z,95656.28
2022-10-13T14:36:08.347Z,95657.41
2022-10-13T14:38:36.530Z,95657.41
2022-10-13T14:41:07.259Z,95647.22
2022-10-13T14:43:34.956Z,95656.91
2022-10-13T14:46:03.685Z,95650.78
2022-10-13T14:48:31.904Z,95643.69
2022-10-13T14:51:00.111Z,95652.22
2022-10-13T14:53:28.356Z,95649.00
2022-10-13T14:55:56.053Z,95647.41
2022-10-13T14:58:25.075Z,95640.78
2022-10-13T15:00:55.550Z,95644.31
2022-10-13T15:03:23.485Z,95653.50
2022-10-13T15:05:51.218Z,95648.47
2022-10-13T15:08:18.913Z,95647.38
2022-10-13T15:10:46.716Z,95645.59
2022-10-13T15:13:14.401Z,95639.34
2022-10-13T15:15:48.668Z,95639.34
2022-10-13T15:18:16.385Z,95644.66
2022-10-13T15:20:47.490Z,95637.06
2022-10-13T15:23:15.681Z,95637.09
2022-10-13T15:25:51.070Z,95635.31
2022-10-13T15:28:18.907Z,95639.81
2022-10-13T15:30:48.056Z,95645.59
2022-10-13T15:33:15.816Z,95640.91
2022-10-13T15:35:43.533Z,95643.59
2022-10-13T15:38:11.329Z,95644.31
2022-10-13T15:40:40.916Z,95643.66
2022-10-13T15:43:09.125Z,95649.25
2022-10-13T15:45:37.174Z,95647.31
2022-10-13T15:48:07.610Z,95653.56
2022-10-13T15:50:35.442Z,95651.16
2022-10-13T15:53:03.243Z,95653.50
2022-10-13T15:55:30.994Z,95656.78
2022-10-13T15:57:58.909Z,95655.44
2022-10-13T16:00:26.820Z,95660.19
2022-10-13T16:02:54.647Z,95661.72
2022-10-13T16:05:23.751Z,95657.19
2022-10-13T16:07:51.500Z,95656.50
2022-10-13T16:10:19.318Z,95659.28
2022-10-13T16:12:49.598Z,95660.88
2022-10-13T16:15:18.436Z,95646.91
2022-10-13T16:17:46.392Z,95649.75
2022-10-13T16:20:14.710Z,95647.34
2022-10-13T16:22:43.852Z,95652.31
2022-10-13T16:25:12.010Z,95660.31
2022-10-13T16:27:44.038Z,95664.59
2022-10-13T16:30:13.204Z,95662.50
2022-10-13T16:32:41.545Z,95671.50
2022-10-13T16:35:12.349Z,95678.56
2022-10-13T16:37:40.027Z,95680.59
2022-10-13T16:40:10.298Z,95684.09
2022-10-13T16:42:38.027Z,95691.00
2022-10-13T16:45:06.981Z,95687.34
2022-10-13T16:47:34.656Z,95691.19
2022-10-13T16:50:06.155Z,95682.94
2022-10-13T16:52:36.983Z,95683.13
2022-10-13T16:55:05.788Z,95686.25
2022-10-13T16:57:34.873Z,95689.78
2022-10-13T17:00:03.775Z,95683.91
2022-10-13T17:02:31.447Z,95685.53
2022-10-13T17:04:59.104Z,95683.31
2022-10-13T17:07:26.765Z,95685.44
2022-10-13T17:09:54.620Z,95688.91
2022-10-13T17:12:22.282Z,95684.34
2022-10-13T17:14:51.327Z,95685.06
2022-10-13T17:17:19.298Z,95689.91
2022-10-13T17:19:47.261Z,95697.38
2022-10-13T17:22:14.945Z,95692.59
2022-10-13T17:24:47.810Z,95695.63
2022-10-13T17:27:16.344Z,95698.34
2022-10-13T17:29:44.198Z,95694.41
2022-10-13T17:32:13.502Z,95704.00
2022-10-13T17:34:41.164Z,95695.38
2022-10-13T17:37:08.835Z,95699.59
2022-10-13T17:39:36.457Z,95697.41
2022-10-13T17:42:04.302Z,95697.25
2022-10-13T17:44:32.301Z,95697.41
2022-10-13T17:46:59.977Z,95689.31
2022-10-13T17:49:29.012Z,95686.94
2022-10-13T17:51:56.723Z,95688.44
2022-10-13T17:54:25.377Z,95692.34
2022-10-13T17:56:56.139Z,95689.03
2022-10-13T17:59:26.376Z,95687.88
2022-10-13T18:01:54.186Z,95689.25
2022-10-13T18:04:22.329Z,95690.13
2022-10-13T18:06:51.344Z,95691.00
2022-10-13T18:09:20.887Z,95690.19
2022-10-13T18:11:51.288Z,95688.72
2022-10-13T18:14:20.000Z,95686.16
2022-10-13T18:16:48.850Z,95685.06
2022-10-13T18:19:19.181Z,95689.25
2022-10-13T18:21:47.010Z,95689.09
2022-10-13T18:24:16.163Z,95690.19
2022-10-13T18:26:43.800Z,95680.69
2022-10-13T18:29:12.846Z,95680.69
2022-10-13T18:31:41.851Z,95679.88
2022-10-13T18:34:12.026Z,95676.25
2022-10-13T18:36:41.861Z,95676.31
2022-10-13T18:39:12.617Z,95679.97
2022-10-13T18:41:42.457Z,95674.00
2022-10-13T18:44:10.379Z,95682.50
2022-10-13T18:46:39.516Z,95684.16
2022-10-13T18:49:08.546Z,95681.72
2022-10-13T18:51:36.696Z,95676.38
2022-10-13T18:54:05.875Z,95683.78
2022-10-13T18:56:34.450Z,95686.88
2022-10-13T18:59:04.470Z,95676.31
2022-10-13T19:01:34.716Z,95672.03
2022-10-13T19:04:02.582Z,95674.97
2022-10-13T19:06:32.195Z,95680.09
2022-10-13T19:09:01.943Z,95673.31
2022-10-13T19:11:31.163Z,95670.19
2022-10-13T19:13:59.837Z,95670.13
2022-10-13T19:16:31.341Z,95663.88
2022-10-13T19:18:59.268Z,95660.41
2022-10-13T19:21:27.324Z,95654.19
2022-10-13T19:23:55.279Z,95652.59
2022-10-13T19:26:25.119Z,95659.22
2022-10-13T19:28:55.529Z,95661.41
2022-10-13T19:31:25.759Z,95661.72
2022-10-13T19:33:55.247Z,95655.16
2022-10-13T19:36:25.246Z,95655.69
2022-10-13T19:38:53.440Z,95662.78
2022-10-13T19:41:21.372Z,95660.88
2022-10-13T19:43:49.347Z,95661.44
2022-10-13T19:46:17.130Z,95659.06
2022-10-13T19:48:44.827Z,95657.19
2022-10-13T19:51:14.089Z,95664.25
2022-10-13T19:53:42.356Z,95656.69
2022-10-13T19:56:10.364Z,95657.25
2022-10-13T19:58:38.096Z,95658.38
2022-10-13T20:01:08.208Z,95655.41
2022-10-13T20:03:36.075Z,95647.81
2022-10-13T20:06:05.389Z,95651.31
2022-10-13T20:08:34.780Z,95653.47
2022-10-13T20:11:07.255Z,95658.66
2022-10-13T20:13:35.179Z,95655.94
2022-10-13T20:16:06.414Z,95655.66
2022-10-13T20:18:34.223Z,95664.09
2022-10-13T20:21:06.009Z,95665.44
2022-10-13T20:23:35.556Z,95664.28
2022-10-13T20:26:04.277Z,95659.59
2022-10-13T20:28:32.710Z,95660.06
2022-10-13T20:31:02.765Z,95657.03
2022-10-13T20:33:30.554Z,95666.97
2022-10-13T20:35:59.861Z,95665.81
2022-10-13T20:38:27.557Z,95666.25
2022-10-13T20:40:58.107Z,95661.31
2022-10-13T20:43:26.056Z,95660.50
2022-10-13T20:46:00.452Z,95667.44
2022-10-13T20:48:51.137Z,95654.53
2022-10-13T20:51:21.637Z,95658.53
2022-10-13T20:53:49.972Z,95663.03
2022-10-13T20:56:21.106Z,95661.94
2022-10-13T20:58:49.495Z,95654.03
2022-10-13T21:01:18.055Z,95649.34
2022-10-13T21:03:46.315Z,95656.13
2022-10-13T21:06:15.192Z,95647.44
2022-10-13T21:08:46.412Z,95645.81
2022-10-13T21:11:16.440Z,95645.00
2022-10-13T21:13:46.026Z,95648.81
2022-10-13T21:16:15.347Z,95642.44
2022-10-13T21:18:45.187Z,95647.81
2022-10-13T21:21:13.009Z,95643.94
2022-10-13T21:23:40.759Z,95648.63
2022-10-13T21:26:09.964Z,95655.41
2022-10-13T21:28:39.263Z,95649.97
2022-10-13T21:31:12.145Z,95643.69
2022-10-13T21:33:41.743Z,95644.75
2022-10-13T21:36:12.006Z,95655.63
2022-10-13T21:38:40.416Z,95657.25
2022-10-13T21:41:09.322Z,95654.69
2022-10-13T21:43:37.710Z,95663.66
2022-10-13T21:46:14.531Z,95664.47
2022-10-13T21:48:43.296Z,95670.66
2022-10-13T21:51:12.877Z,95678.53
2022-10-13T21:53:40.526Z,95684.25
2022-10-13T21:56:09.424Z,95679.59
2022-10-13T21:58:37.085Z,95682.00
2022-10-13T22:01:05.896Z,95684.72
2022-10-13T22:03:35.334Z,95693.41
2022-10-13T22:06:07.619Z,95704.59
2022-10-13T22:08:38.979Z,95707.31
2022-10-13T22:11:08.635Z,95712.75
2022-10-13T22:13:36.941Z,95714.19
2022-10-13T22:16:05.954Z,95712.81
2022-10-13T22:18:35.166Z,95717.75
2022-10-13T22:21:03.152Z,95728.69
2022-10-13T22:23:30.944Z,95729.19
2022-10-13T22:25:58.631Z,95732.44
2022-10-13T22:28:26.488Z,95739.00
2022-10-13T22:30:54.186Z,95732.69
2022-10-13T22:33:21.833Z,95726.16
2022-10-13T22:35:50.823Z,95731.34
2022-10-13T22:38:18.438Z,95727.78
2022-10-13T22:40:46.074Z,95728.88
2022-10-13T22:43:13.838Z,95727.78
2022-10-13T22:45:50.827Z,95720.19
2022-10-13T22:48:18.601Z,95724.75
2022-10-13T22:50:46.484Z,95732.44
2022-10-13T22:53:15.455Z,95729.38
2022-10-13T22:55:43.365Z,95723.16
2022-10-13T22:58:11.000Z,95723.44
2022-10-13T23:05:09.769Z,95710.06
2022-10-13T23:07:37.397Z,95710.34
2022-10-13T23:10:05.727Z,95711.38
2022-10-13T23:12:33.482Z,95704.84
2022-10-13T23:15:01.148Z,95696.16
2022-10-13T23:17:28.837Z,95693.16
2022-10-13T23:19:56.531Z,95695.88
2022-10-13T23:22:25.613Z,95692.63
2022-10-13T23:24:53.294Z,95688.28
2022-10-13T23:27:21.171Z,95689.38
2022-10-13T23:29:49.077Z,95685.03
2022-10-13T23:32:16.762Z,95681.50
2022-10-13T23:34:44.455Z,95687.25
2022-10-13T23:37:12.212Z,95682.38
2022-10-13T23:39:41.213Z,95670.97
2022-10-13T23:42:08.997Z,95675.88
2022-10-13T23:44:36.724Z,95672.66
2022-10-13T23:47:04.409Z,95667.28
2022-10-13T23:49:32.145Z,95666.25
2022-10-13T23:51:59.825Z,95672.00
2022-10-13T23:54:27.467Z,95657.97
2022-10-13T23:56:56.443Z,95663.28
2022-10-13T23:59:24.502Z,95662.03
